createdAt,value
2018-07-20T12:57:45.365Z,25.30
2018-07-20T13:00:14.141Z,25.20
2018-07-20T13:02:43.207Z,25.20
2018-07-20T13:05:11.754Z,25.10
2018-07-20T13:07:40.650Z,25.10
2018-07-20T13:10:09.458Z,25.10
2018-07-20T13:12:38.192Z,25.10
2018-07-20T13:15:07.094Z,25.00
2018-07-20T13:17:35.864Z,25.00
2018-07-20T13:20:04.923Z,24.90
2018-07-20T13:22:33.595Z,24.90
2018-07-20T13:25:02.677Z,24.90
2018-07-20T13:27:31.403Z,24.80
2018-07-20T13:30:00.383Z,24.80
2018-07-20T13:32:28.919Z,24.70
2018-07-20T13:34:57.742Z,24.70
2018-07-20T13:37:26.364Z,24.70
2018-07-20T13:39:54.951Z,24.70
2018-07-20T13:42:23.675Z,24.70
2018-07-20T13:44:53.755Z,24.70
2018-07-20T13:47:22.603Z,24.70
2018-07-20T13:49:51.629Z,24.70
2018-07-20T13:52:20.537Z,24.70
2018-07-20T13:54:49.302Z,24.70
2018-07-20T13:57:18.149Z,24.60
2018-07-20T13:59:46.810Z,24.70
2018-07-20T14:02:16.534Z,24.60
2018-07-20T14:04:45.178Z,24.60
2018-07-20T14:07:13.927Z,24.70
2018-07-20T14:09:43.173Z,24.60
2018-07-20T14:12:11.981Z,24.60
2018-07-20T14:14:40.779Z,24.70
2018-07-20T14:17:10.230Z,26.80
2018-07-20T14:19:38.911Z,27.50
2018-07-20T14:22:07.947Z,26.50
2018-07-20T14:24:37.073Z,27.30
2018-07-20T14:27:05.604Z,29.00
2018-07-20T14:29:34.612Z,28.20
2018-07-20T14:32:03.320Z,27.00
2018-07-20T14:34:32.135Z,26.30
2018-07-20T14:37:00.784Z,25.90
2018-07-20T14:39:29.583Z,25.80
2018-07-20T14:41:58.369Z,25.60
2018-07-20T14:44:27.311Z,25.50
2018-07-20T14:46:55.857Z,25.40
2018-07-20T14:49:24.933Z,25.30
2018-07-20T14:51:53.549Z,25.20
2018-07-20T14:54:22.733Z,25.20
2018-07-20T14:56:52.629Z,25.20
2018-07-20T14:59:21.627Z,25.30
2018-07-20T15:01:50.583Z,25.30
2018-07-20T15:04:19.270Z,25.30
2018-07-20T15:06:48.055Z,25.20
2018-07-20T15:09:16.681Z,25.20
2018-07-20T15:11:45.534Z,25.20
2018-07-20T15:19:10.517Z,25.40
2018-07-20T15:21:39.452Z,25.60
2018-07-20T15:24:08.123Z,25.90
2018-07-20T15:26:36.884Z,25.90
2018-07-20T15:29:06.614Z,26.10
2018-07-20T15:31:37.003Z,28.00
2018-07-20T15:34:08.733Z,26.90
2018-07-20T15:36:38.545Z,26.60
2018-07-20T15:39:10.788Z,26.50
2018-07-20T15:41:40.905Z,26.40
2018-07-20T15:44:09.586Z,26.40
2018-07-20T15:46:57.156Z,26.40
2018-07-20T15:50:44.160Z,26.40
2018-07-20T15:53:46.433Z,26.20
2018-07-20T15:56:15.750Z,25.90
2018-07-20T15:58:44.266Z,25.90
2018-07-20T16:01:13.311Z,25.90
2018-07-20T16:06:10.437Z,26.00
2018-07-20T16:08:38.999Z,25.90
2018-07-20T16:11:07.681Z,25.80
2018-07-20T16:13:36.634Z,26.00
2018-07-20T16:16:05.564Z,26.00
2018-07-20T16:18:34.261Z,25.90
2018-07-20T16:21:03.218Z,26.00
2018-07-20T16:23:32.342Z,26.30
2018-07-20T16:26:01.648Z,26.40
2018-07-20T16:28:30.299Z,26.50
2018-07-20T16:30:58.938Z,26.60
2018-07-20T16:33:27.743Z,26.70
2018-07-20T16:35:57.724Z,26.70
2018-07-20T16:38:26.389Z,26.70
2018-07-20T16:40:54.958Z,26.80
2018-07-20T16:43:23.706Z,26.80
2018-07-20T16:45:52.680Z,26.80
2018-07-20T16:48:21.234Z,26.80
2018-07-20T16:50:49.985Z,26.70
2018-07-20T16:53:18.612Z,26.60
2018-07-20T16:55:47.345Z,26.70
2018-07-20T16:58:16.125Z,26.70
2018-07-20T17:00:44.894Z,26.60
2018-07-20T17:03:13.550Z,26.60
2018-07-20T17:05:42.639Z,26.60
2018-07-20T17:08:11.483Z,26.60
2018-07-20T17:10:40.338Z,26.70
2018-07-20T17:13:09.155Z,26.80
2018-07-20T17:15:37.922Z,26.90
2018-07-20T17:18:06.700Z,26.90
2018-07-20T17:20:35.355Z,26.90
2018-07-20T17:23:04.092Z,27.00
2018-07-20T17:25:32.762Z,27.00
2018-07-20T17:28:01.614Z,27.00
2018-07-20T17:30:30.437Z,27.10
2018-07-20T17:32:59.179Z,27.10
2018-07-20T17:35:28.334Z,27.10
2018-07-20T17:37:57.401Z,27.10
2018-07-20T17:40:26.155Z,27.10
2018-07-20T17:42:54.907Z,27.20
2018-07-20T17:45:24.065Z,27.20
2018-07-20T17:47:53.002Z,27.20
2018-07-20T17:50:21.686Z,27.20
2018-07-20T17:52:50.345Z,27.10
2018-07-20T17:55:19.096Z,27.10
2018-07-20T17:57:47.600Z,27.10
2018-07-20T18:00:19.994Z,27.10
2018-07-20T18:02:48.767Z,27.10
2018-07-20T18:05:17.597Z,27.10
2018-07-20T18:07:46.535Z,27.00
2018-07-20T18:10:15.280Z,27.00
2018-07-20T18:12:43.888Z,27.00
2018-07-20T18:15:12.723Z,27.00
2018-07-20T18:17:41.626Z,27.00
2018-07-20T18:20:10.327Z,27.00
2018-07-20T18:22:39.068Z,26.90
2018-07-20T18:25:07.816Z,26.90
2018-07-20T18:27:36.523Z,27.00
2018-07-20T18:30:06.590Z,27.00
2018-07-20T18:32:35.487Z,27.00
2018-07-20T18:35:04.435Z,27.00
2018-07-20T18:37:33.435Z,27.00
2018-07-20T18:40:02.327Z,27.00
2018-07-20T18:42:31.216Z,26.90
2018-07-20T18:44:59.875Z,26.90
2018-07-20T18:47:28.503Z,26.90
2018-07-20T18:49:57.257Z,26.90
2018-07-20T18:52:26.024Z,26.90
2018-07-20T18:54:54.720Z,26.90
2018-07-20T18:57:23.360Z,26.90
2018-07-20T18:59:52.079Z,26.90
2018-07-20T19:02:21.069Z,26.90
2018-07-20T19:04:49.853Z,26.80
2018-07-20T19:07:18.571Z,26.70
2018-07-20T19:09:47.200Z,26.80
2018-07-20T19:14:44.463Z,26.70
2018-07-20T19:17:13.281Z,26.60
2018-07-20T19:19:42.150Z,26.60
2018-07-20T19:22:10.839Z,26.70
2018-07-20T19:24:39.597Z,26.70
2018-07-20T19:27:09.087Z,26.60
2018-07-20T19:29:37.820Z,26.50
2018-07-20T19:32:06.471Z,26.40
2018-07-20T19:34:35.735Z,26.40
2018-07-20T19:37:04.430Z,26.40
2018-07-20T19:39:33.510Z,26.40
2018-07-20T19:42:02.189Z,26.40
2018-07-20T19:44:30.826Z,26.40
2018-07-20T19:46:59.483Z,26.40
2018-07-20T19:49:28.135Z,26.30
2018-07-20T19:51:57.012Z,26.30
2018-07-20T19:54:25.533Z,26.30
2018-07-20T19:56:54.429Z,26.30
2018-07-20T19:59:23.119Z,26.30
2018-07-20T20:01:51.876Z,26.30
2018-07-20T20:04:20.654Z,26.30
2018-07-20T20:06:49.535Z,26.30
2018-07-20T20:09:18.244Z,26.30
2018-07-20T20:11:47.456Z,26.30
2018-07-20T20:14:16.367Z,26.30
2018-07-20T20:16:45.032Z,26.30
2018-07-20T20:19:13.552Z,26.30
2018-07-20T20:21:42.737Z,26.20
2018-07-20T20:24:12.044Z,26.20
2018-07-20T20:26:40.772Z,26.20
2018-07-20T20:29:09.850Z,26.20
2018-07-20T20:31:38.967Z,26.20
2018-07-20T20:34:07.742Z,26.20
2018-07-20T20:36:36.470Z,26.20
2018-07-20T20:39:11.535Z,26.20
2018-07-20T20:41:40.574Z,26.10
2018-07-20T20:44:10.468Z,26.10
2018-07-20T20:46:40.191Z,26.20
2018-07-20T20:49:09.441Z,26.10
2018-07-20T20:51:38.237Z,26.00
2018-07-20T20:54:07.842Z,26.00
2018-07-20T20:56:36.717Z,26.10
2018-07-20T20:59:05.761Z,26.00
2018-07-20T21:01:34.864Z,26.10
2018-07-20T21:04:03.734Z,26.00
2018-07-20T21:06:32.763Z,25.90
2018-07-20T21:09:01.521Z,25.90
2018-07-20T21:11:30.506Z,25.90
2018-07-20T21:16:27.787Z,25.90
2018-07-20T21:18:56.607Z,25.90
2018-07-20T21:21:26.072Z,25.90
2018-07-20T21:23:54.948Z,25.80
2018-07-20T21:26:23.830Z,25.90
2018-07-20T21:28:53.208Z,25.80
2018-07-20T21:31:21.950Z,25.80
2018-07-20T21:33:51.302Z,25.80
2018-07-20T21:36:20.476Z,25.80
2018-07-20T21:38:49.256Z,25.80
2018-07-20T21:41:18.355Z,25.80
2018-07-20T21:43:47.033Z,25.80
2018-07-20T21:46:15.918Z,25.70
2018-07-20T21:48:44.964Z,25.80
2018-07-20T21:51:13.916Z,25.70
2018-07-20T21:53:42.667Z,25.80
2018-07-20T21:56:11.704Z,25.70
2018-07-20T21:58:40.726Z,25.80
2018-07-20T22:01:09.500Z,25.70
2018-07-20T22:03:38.402Z,25.70
2018-07-20T22:06:07.208Z,25.70
2018-07-20T22:08:35.902Z,25.70
2018-07-20T22:11:05.120Z,25.60
2018-07-20T22:13:33.862Z,25.60
2018-07-20T22:16:02.466Z,25.50
2018-07-20T22:18:31.186Z,25.50
2018-07-20T22:21:00.053Z,25.40
2018-07-20T22:23:29.071Z,25.30
2018-07-20T22:25:58.171Z,25.30
2018-07-20T22:28:27.675Z,25.30
2018-07-20T22:30:57.071Z,25.30
2018-07-20T22:33:26.035Z,25.30
2018-07-20T22:35:54.915Z,25.30
2018-07-20T22:38:23.953Z,25.30
2018-07-20T22:40:52.916Z,25.20
2018-07-20T22:43:21.839Z,25.20
2018-07-20T22:45:50.736Z,25.20
2018-07-20T22:48:19.699Z,25.30
2018-07-20T22:50:48.677Z,25.30
2018-07-20T22:53:17.980Z,25.30
2018-07-20T22:55:46.943Z,25.30
2018-07-20T22:58:15.779Z,25.30
2018-07-20T23:00:45.501Z,25.30
2018-07-20T23:03:14.400Z,25.20
2018-07-20T23:05:43.267Z,25.20
2018-07-20T23:08:12.701Z,25.20
2018-07-20T23:10:41.767Z,25.20
2018-07-20T23:13:10.605Z,25.20
2018-07-20T23:15:39.525Z,25.20
2018-07-20T23:18:08.366Z,25.10
2018-07-20T23:20:37.259Z,25.20
2018-07-20T23:23:06.131Z,25.10
2018-07-20T23:25:35.012Z,25.10
2018-07-20T23:28:04.015Z,25.10
2018-07-20T23:30:32.849Z,25.00
2018-07-20T23:33:02.015Z,25.00
2018-07-20T23:35:31.131Z,25.00
2018-07-20T23:38:00.456Z,25.00
2018-07-20T23:40:29.236Z,25.00
2018-07-20T23:45:26.518Z,24.90
2018-07-20T23:47:55.664Z,24.90
2018-07-20T23:50:24.659Z,24.80
2018-07-20T23:52:53.385Z,24.80
2018-07-20T23:55:22.238Z,24.80
2018-07-20T23:57:51.163Z,24.90
